sensor_id;sensor_type;location;lat;lon;timestamp;pressure;altitude;pressure_sealevel;temperature;humidity
47753;BME280;2038;51.728;6.674;2024-02-28T00:01:27;78130.72;;;-141.64;89.31
47753;BME280;2038;51.728;6.674;2024-02-28T00:03:53;78126.81;;;-141.64;89.20
47753;BME280;2038;51.728;6.674;2024-02-28T00:06:20;78120.97;;;-141.64;88.99
47753;BME280;2038;51.728;6.674;2024-02-28T00:08:46;78120.97;;;-141.64;88.93
47753;BME280;2038;51.728;6.674;2024-02-28T00:11:13;78124.88;;;-141.64;88.50
47753;BME280;2038;51.728;6.674;2024-02-28T00:13:39;78119.00;;;-141.64;88.89
47753;BME280;2038;51.728;6.674;2024-02-28T00:16:05;78124.88;;;-141.64;88.91
47753;BME280;2038;51.728;6.674;2024-02-28T00:18:32;78115.09;;;-141.64;88.94
47753;BME280;2038;51.728;6.674;2024-02-28T00:20:58;78119.00;;;-141.64;88.77
47753;BME280;2038;51.728;6.674;2024-02-28T00:23:24;78132.69;;;-141.64;88.96
47753;BME280;2038;51.728;6.674;2024-02-28T00:25:51;78148.31;;;-141.64;89.27
47753;BME280;2038;51.728;6.674;2024-02-28T00:28:17;78138.53;;;-141.64;89.52
47753;BME280;2038;51.728;6.674;2024-02-28T00:30:45;78130.72;;;-141.64;89.21
47753;BME280;2038;51.728;6.674;2024-02-28T00:33:11;78113.16;;;-141.64;88.94
47753;BME280;2038;51.728;6.674;2024-02-28T00:35:39;78113.16;;;-141.64;88.85
47753;BME280;2038;51.728;6.674;2024-02-28T00:38:05;78119.00;;;-141.64;88.68
47753;BME280;2038;51.728;6.674;2024-02-28T00:40:31;78122.91;;;-141.64;89.06
47753;BME280;2038;51.728;6.674;2024-02-28T00:42:58;78120.97;;;-141.64;88.84
47753;BME280;2038;51.728;6.674;2024-02-28T00:45:24;78144.41;;;-141.64;88.62
47753;BME280;2038;51.728;6.674;2024-02-28T00:47:50;78132.69;;;-141.64;88.67
47753;BME280;2038;51.728;6.674;2024-02-28T00:50:17;78136.59;;;-141.64;88.76
47753;BME280;2038;51.728;6.674;2024-02-28T00:52:43;78156.13;;;-141.64;88.63
47753;BME280;2038;51.728;6.674;2024-02-28T00:55:09;78160.03;;;-141.64;88.94
47753;BME280;2038;51.728;6.674;2024-02-28T00:57:35;78152.22;;;-141.64;88.94
47753;BME280;2038;51.728;6.674;2024-02-28T01:00:02;78146.34;;;-141.64;89.23
47753;BME280;2038;51.728;6.674;2024-02-28T01:02:28;78136.59;;;-141.64;89.34
47753;BME280;2038;51.728;6.674;2024-02-28T01:04:55;78128.78;;;-141.64;89.22
47753;BME280;2038;51.728;6.674;2024-02-28T01:07:21;78132.69;;;-141.64;89.22
47753;BME280;2038;51.728;6.674;2024-02-28T01:09:47;78132.69;;;-141.64;89.47
47753;BME280;2038;51.728;6.674;2024-02-28T01:12:13;78132.69;;;-141.64;89.27
47753;BME280;2038;51.728;6.674;2024-02-28T01:14:40;78134.63;;;-141.64;89.43
47753;BME280;2038;51.728;6.674;2024-02-28T01:17:06;78138.53;;;-141.64;89.60
47753;BME280;2038;51.728;6.674;2024-02-28T01:19:32;78132.69;;;-141.64;89.51
47753;BME280;2038;51.728;6.674;2024-02-28T01:21:58;78115.09;;;-141.64;89.52
47753;BME280;2038;51.728;6.674;2024-02-28T01:24:25;78107.28;;;-141.64;89.29
47753;BME280;2038;51.728;6.674;2024-02-28T01:26:51;78119.00;;;-141.64;89.51
47753;BME280;2038;51.728;6.674;2024-02-28T01:29:17;78117.06;;;-141.64;89.65
47753;BME280;2038;51.728;6.674;2024-02-28T01:31:44;78117.06;;;-141.64;89.67
47753;BME280;2038;51.728;6.674;2024-02-28T01:34:10;78115.09;;;-141.64;89.86
47753;BME280;2038;51.728;6.674;2024-02-28T01:36:36;78109.25;;;-141.64;89.66
47753;BME280;2038;51.728;6.674;2024-02-28T01:39:03;78120.97;;;-141.64;89.62
47753;BME280;2038;51.728;6.674;2024-02-28T01:41:29;78122.91;;;-141.64;89.71
47753;BME280;2038;51.728;6.674;2024-02-28T01:43:55;78124.88;;;-141.64;89.60
47753;BME280;2038;51.728;6.674;2024-02-28T01:48:55;78124.88;;;-141.64;89.53
47753;BME280;2038;51.728;6.674;2024-02-28T01:51:25;78132.69;;;-141.64;89.46
47753;BME280;2038;51.728;6.674;2024-02-28T01:53:54;78128.78;;;-141.64;89.49
47753;BME280;2038;51.728;6.674;2024-02-28T01:56:22;78150.28;;;-141.64;89.33
47753;BME280;2038;51.728;6.674;2024-02-28T01:58:50;78140.50;;;-141.64;89.58
47753;BME280;2038;51.728;6.674;2024-02-28T02:01:17;78128.78;;;-141.64;89.79
47753;BME280;2038;51.728;6.674;2024-02-28T02:03:44;78122.91;;;-141.64;89.49
47753;BME280;2038;51.728;6.674;2024-02-28T02:06:10;78134.63;;;-141.64;89.43
47753;BME280;2038;51.728;6.674;2024-02-28T02:08:38;78142.44;;;-141.64;89.18
47753;BME280;2038;51.728;6.674;2024-02-28T02:11:05;78144.41;;;-141.64;89.30
47753;BME280;2038;51.728;6.674;2024-02-28T02:13:32;78150.28;;;-141.64;89.50
47753;BME280;2038;51.728;6.674;2024-02-28T02:15:58;78154.16;;;-141.64;89.71
47753;BME280;2038;51.728;6.674;2024-02-28T02:18:25;78165.91;;;-141.64;89.46
47753;BME280;2038;51.728;6.674;2024-02-28T02:20:58;78160.03;;;-141.64;89.30
47753;BME280;2038;51.728;6.674;2024-02-28T02:23:31;78169.81;;;-141.64;89.45
47753;BME280;2038;51.728;6.674;2024-02-28T02:25:58;78169.81;;;-141.64;89.52
47753;BME280;2038;51.728;6.674;2024-02-28T02:28:24;78173.72;;;-141.64;89.22
47753;BME280;2038;51.728;6.674;2024-02-28T02:30:50;78173.72;;;-141.64;89.45
47753;BME280;2038;51.728;6.674;2024-02-28T02:33:16;78173.72;;;-141.64;89.48
47753;BME280;2038;51.728;6.674;2024-02-28T02:35:43;78181.53;;;-141.64;89.37
47753;BME280;2038;51.728;6.674;2024-02-28T02:38:09;78185.44;;;-141.64;89.46
47753;BME280;2038;51.728;6.674;2024-02-28T02:40:36;78193.25;;;-141.64;89.23
47753;BME280;2038;51.728;6.674;2024-02-28T02:43:02;78189.34;;;-141.64;89.20
47753;BME280;2038;51.728;6.674;2024-02-28T02:45:28;78208.88;;;-141.64;89.22
47753;BME280;2038;51.728;6.674;2024-02-28T02:47:54;78214.72;;;-141.64;89.26
47753;BME280;2038;51.728;6.674;2024-02-28T02:50:21;78212.78;;;-141.64;89.45
47753;BME280;2038;51.728;6.674;2024-02-28T02:52:47;78224.50;;;-141.64;89.31
47753;BME280;2038;51.728;6.674;2024-02-28T02:55:13;78226.44;;;-141.64;89.38
47753;BME280;2038;51.728;6.674;2024-02-28T02:57:41;78236.22;;;-141.64;89.13
47753;BME280;2038;51.728;6.674;2024-02-28T03:00:10;78240.13;;;-141.64;89.52
47753;BME280;2038;51.728;6.674;2024-02-28T03:02:37;78230.34;;;-141.64;89.10
47753;BME280;2038;51.728;6.674;2024-02-28T05:07:27;78285.06;;;-141.64;92.26
47753;BME280;2038;51.728;6.674;2024-02-28T05:09:53;78275.28;;;-141.64;92.29
47753;BME280;2038;51.728;6.674;2024-02-28T05:12:19;78273.34;;;-141.64;92.01
47753;BME280;2038;51.728;6.674;2024-02-28T05:14:46;78267.47;;;-141.64;91.92
47753;BME280;2038;51.728;6.674;2024-02-28T05:17:12;78263.56;;;-141.64;92.14
47753;BME280;2038;51.728;6.674;2024-02-28T05:19:39;78255.75;;;-141.64;92.13
47753;BME280;2038;51.728;6.674;2024-02-28T05:22:06;78244.03;;;-141.64;91.98
47753;BME280;2038;51.728;6.674;2024-02-28T05:24:32;78238.16;;;-141.64;92.22
47753;BME280;2038;51.728;6.674;2024-02-28T05:26:58;78240.13;;;-141.64;91.85
47753;BME280;2038;51.728;6.674;2024-02-28T05:29:25;78224.50;;;-141.64;91.59
47753;BME280;2038;51.728;6.674;2024-02-28T05:31:52;78218.63;;;-141.64;91.26
47753;BME280;2038;51.728;6.674;2024-02-28T05:34:18;78218.63;;;-141.64;90.98
47753;BME280;2038;51.728;6.674;2024-02-28T05:36:45;78218.63;;;-141.64;90.89
47753;BME280;2038;51.728;6.674;2024-02-28T05:39:12;78218.63;;;-141.64;90.71
47753;BME280;2038;51.728;6.674;2024-02-28T05:41:38;78220.59;;;-141.64;90.78
47753;BME280;2038;51.728;6.674;2024-02-28T05:44:04;78232.31;;;-141.64;90.53
47753;BME280;2038;51.728;6.674;2024-02-28T05:46:31;78249.88;;;-141.64;91.61
47753;BME280;2038;51.728;6.674;2024-02-28T05:48:58;78249.88;;;-141.64;91.86
47753;BME280;2038;51.728;6.674;2024-02-28T05:51:24;78259.66;;;-141.64;91.77
47753;BME280;2038;51.728;6.674;2024-02-28T05:53:50;78263.56;;;-141.64;91.92
47753;BME280;2038;51.728;6.674;2024-02-28T05:56:17;78271.38;;;-141.64;91.86
47753;BME280;2038;51.728;6.674;2024-02-28T05:58:46;78283.09;;;-141.64;92.18
47753;BME280;2038;51.728;6.674;2024-02-28T06:01:16;78287.00;;;-141.64;92.01
47753;BME280;2038;51.728;6.674;2024-02-28T06:03:49;78287.00;;;-141.64;92.13
47753;BME280;2038;51.728;6.674;2024-02-28T06:06:16;78290.91;;;-141.64;92.20
47753;BME280;2038;51.728;6.674;2024-02-28T06:08:43;78281.16;;;-141.64;92.54
47753;BME280;2038;51.728;6.674;2024-02-28T06:11:10;78292.88;;;-141.64;91.92
47753;BME280;2038;51.728;6.674;2024-02-28T06:13:39;78302.63;;;-141.64;92.07
47753;BME280;2038;51.728;6.674;2024-02-28T06:16:06;78312.41;;;-141.64;92.03
47753;BME280;2038;51.728;6.674;2024-02-28T06:18:32;78318.25;;;-141.64;91.92
47753;BME280;2038;51.728;6.674;2024-02-28T06:20:59;78318.25;;;-141.64;92.13
47753;BME280;2038;51.728;6.674;2024-02-28T06:23:29;78320.22;;;-141.64;92.22
47753;BME280;2038;51.728;6.674;2024-02-28T06:25:56;78314.34;;;-141.64;92.19
47753;BME280;2038;51.728;6.674;2024-02-28T06:28:22;78314.34;;;-141.64;92.18
47753;BME280;2038;51.728;6.674;2024-02-28T06:30:49;78318.25;;;-141.64;92.44
47753;BME280;2038;51.728;6.674;2024-02-28T06:33:15;78314.34;;;-141.64;92.17
47753;BME280;2038;51.728;6.674;2024-02-28T06:35:41;78302.63;;;-141.64;91.99
47753;BME280;2038;51.728;6.674;2024-02-28T06:38:08;78298.72;;;-141.64;91.84
47753;BME280;2038;51.728;6.674;2024-02-28T06:40:34;78316.31;;;-141.64;92.47
47753;BME280;2038;51.728;6.674;2024-02-28T06:43:01;78326.06;;;-141.64;92.05
47753;BME280;2038;51.728;6.674;2024-02-28T06:45:27;78318.25;;;-141.64;92.45
47753;BME280;2038;51.728;6.674;2024-02-28T06:47:54;78318.25;;;-141.64;92.58
47753;BME280;2038;51.728;6.674;2024-02-28T06:50:20;78318.25;;;-141.64;92.46
47753;BME280;2038;51.728;6.674;2024-02-28T06:52:47;78314.34;;;-141.64;92.45
47753;BME280;2038;51.728;6.674;2024-02-28T06:55:13;78314.34;;;-141.64;92.26
47753;BME280;2038;51.728;6.674;2024-02-28T06:57:43;78312.41;;;-141.64;92.39
47753;BME280;2038;51.728;6.674;2024-02-28T07:00:11;78310.44;;;-141.64;92.68
47753;BME280;2038;51.728;6.674;2024-02-28T07:02:40;78306.53;;;-141.64;92.46
47753;BME280;2038;51.728;6.674;2024-02-28T07:05:06;78320.22;;;-141.64;92.83
47753;BME280;2038;51.728;6.674;2024-02-28T07:07:33;78320.22;;;-141.64;93.16
47753;BME280;2038;51.728;6.674;2024-02-28T07:10:02;78322.16;;;-141.64;92.99
47753;BME280;2038;51.728;6.674;2024-02-28T07:12:32;78322.16;;;-141.64;93.08
47753;BME280;2038;51.728;6.674;2024-02-28T07:14:58;78324.13;;;-141.64;93.05
47753;BME280;2038;51.728;6.674;2024-02-28T07:17:24;78324.13;;;-141.64;93.08
47753;BME280;2038;51.728;6.674;2024-02-28T07:19:50;78310.44;;;-141.64;93.05
47753;BME280;2038;51.728;6.674;2024-02-28T07:22:18;78318.25;;;-141.64;93.06
47753;BME280;2038;51.728;6.674;2024-02-28T07:24:44;78304.59;;;-141.64;93.12
47753;BME280;2038;51.728;6.674;2024-02-28T07:27:10;78310.44;;;-141.64;92.98
47753;BME280;2038;51.728;6.674;2024-02-28T07:29:37;78296.78;;;-141.64;92.88
47753;BME280;2038;51.728;6.674;2024-02-28T07:32:04;78292.88;;;-141.64;92.65
47753;BME280;2038;51.728;6.674;2024-02-28T07:34:31;78290.91;;;-141.64;92.83
47753;BME280;2038;51.728;6.674;2024-02-28T07:36:57;78294.81;;;-141.64;92.78
47753;BME280;2038;51.728;6.674;2024-02-28T07:39:23;78290.91;;;-141.64;92.67
47753;BME280;2038;51.728;6.674;2024-02-28T07:41:50;78290.91;;;-141.64;92.45
47753;BME280;2038;51.728;6.674;2024-02-28T07:44:16;78285.06;;;-141.64;92.78
47753;BME280;2038;51.728;6.674;2024-02-28T07:46:43;78288.97;;;-141.64;92.99
47753;BME280;2038;51.728;6.674;2024-02-28T07:49:10;78287.00;;;-141.64;93.07
47753;BME280;2038;51.728;6.674;2024-02-28T07:51:37;78292.88;;;-141.64;92.98
47753;BME280;2038;51.728;6.674;2024-02-28T07:54:03;78283.09;;;-141.64;93.08
47753;BME280;2038;51.728;6.674;2024-02-28T07:56:29;78275.28;;;-141.64;93.10
47753;BME280;2038;51.728;6.674;2024-02-28T07:58:56;78261.59;;;-141.64;93.34
47753;BME280;2038;51.728;6.674;2024-02-28T08:01:23;78251.84;;;-141.64;93.29
47753;BME280;2038;51.728;6.674;2024-02-28T08:03:49;78259.66;;;-141.64;93.16
47753;BME280;2038;51.728;6.674;2024-02-28T08:06:16;78255.75;;;-141.64;93.15
47753;BME280;2038;51.728;6.674;2024-02-28T08:08:46;78244.03;;;-141.64;93.06
47753;BME280;2038;51.728;6.674;2024-02-28T08:11:13;78236.22;;;-141.64;93.27
47753;BME280;2038;51.728;6.674;2024-02-28T08:13:39;78222.53;;;-141.64;93.48
47753;BME280;2038;51.728;6.674;2024-02-28T08:16:06;78208.88;;;-141.64;93.14
47753;BME280;2038;51.728;6.674;2024-02-28T08:18:34;78210.81;;;-141.64;92.99
47753;BME280;2038;51.728;6.674;2024-02-28T08:21:01;78201.06;;;-141.64;92.82
47753;BME280;2038;51.728;6.674;2024-02-28T08:23:29;78206.91;;;-141.64;93.12
47753;BME280;2038;51.728;6.674;2024-02-28T08:25:56;78204.97;;;-141.64;93.43
47753;BME280;2038;51.728;6.674;2024-02-28T08:28:23;78181.53;;;-141.64;93.33
47753;BME280;2038;51.728;6.674;2024-02-28T08:30:49;78167.84;;;-141.64;93.31
47753;BME280;2038;51.728;6.674;2024-02-28T08:33:17;78161.97;;;-141.64;93.36
47753;BME280;2038;51.728;6.674;2024-02-28T08:35:43;78148.31;;;-141.64;93.03
47753;BME280;2038;51.728;6.674;2024-02-28T08:38:09;78138.53;;;-141.64;93.10
47753;BME280;2038;51.728;6.674;2024-02-28T08:40:35;78128.78;;;-141.64;92.65
47753;BME280;2038;51.728;6.674;2024-02-28T08:43:02;78128.78;;;-141.64;93.09
47753;BME280;2038;51.728;6.674;2024-02-28T08:45:28;78122.91;;;-141.64;92.79
47753;BME280;2038;51.728;6.674;2024-02-28T08:47:54;78119.00;;;-141.64;93.08
47753;BME280;2038;51.728;6.674;2024-02-28T08:50:23;78122.91;;;-141.64;93.02
47753;BME280;2038;51.728;6.674;2024-02-28T08:52:49;78113.16;;;-141.64;92.73
47753;BME280;2038;51.728;6.674;2024-02-28T08:55:16;78107.28;;;-141.64;92.67
47753;BME280;2038;51.728;6.674;2024-02-28T08:57:44;78113.16;;;-141.64;92.33
47753;BME280;2038;51.728;6.674;2024-02-28T09:00:11;78107.28;;;-141.64;92.51
47753;BME280;2038;51.728;6.674;2024-02-28T09:02:38;78099.47;;;-141.64;92.59
47753;BME280;2038;51.728;6.674;2024-02-28T09:05:05;78079.94;;;-141.64;93.00
47753;BME280;2038;51.728;6.674;2024-02-28T09:07:31;78066.28;;;-141.64;93.16
47753;BME280;2038;51.728;6.674;2024-02-28T09:09:58;78054.56;;;-141.64;93.05
47753;BME280;2038;51.728;6.674;2024-02-28T09:12:24;78042.84;;;-141.64;92.98
47753;BME280;2038;51.728;6.674;2024-02-28T09:14:50;78029.16;;;-141.64;93.10
47753;BME280;2038;51.728;6.674;2024-02-28T09:17:22;78019.38;;;-141.64;92.68
47753;BME280;2038;51.728;6.674;2024-02-28T09:19:48;78007.66;;;-141.64;93.15
47753;BME280;2038;51.728;6.674;2024-02-28T09:22:14;78001.81;;;-141.64;92.59
47753;BME280;2038;51.728;6.674;2024-02-28T09:24:43;77995.94;;;-141.64;92.85
47753;BME280;2038;51.728;6.674;2024-02-28T09:27:09;77986.19;;;-141.64;92.58
47753;BME280;2038;51.728;6.674;2024-02-28T09:29:36;77988.13;;;-141.64;92.67
47753;BME280;2038;51.728;6.674;2024-02-28T09:32:02;77980.31;;;-141.64;92.02
47753;BME280;2038;51.728;6.674;2024-02-28T09:34:28;77968.59;;;-141.64;92.72
47753;BME280;2038;51.728;6.674;2024-02-28T09:36:55;77951.03;;;-141.64;92.53
47753;BME280;2038;51.728;6.674;2024-02-28T09:39:21;77949.06;;;-141.64;92.49
47753;BME280;2038;51.728;6.674;2024-02-28T09:41:50;77927.59;;;-141.64;92.70
47753;BME280;2038;51.728;6.674;2024-02-28T09:44:17;77919.78;;;-141.64;92.36
47753;BME280;2038;51.728;6.674;2024-02-28T09:46:44;77911.97;;;-141.64;92.50
47753;BME280;2038;51.728;6.674;2024-02-28T09:49:11;77902.19;;;-141.64;92.18
47753;BME280;2038;51.728;6.674;2024-02-28T09:51:39;77884.63;;;-141.64;92.26
47753;BME280;2038;51.728;6.674;2024-02-28T09:54:05;77869.00;;;-141.64;92.01
47753;BME280;2038;51.728;6.674;2024-02-28T09:56:32;77867.03;;;-141.64;91.34
47753;BME280;2038;51.728;6.674;2024-02-28T09:58:59;77863.13;;;-141.64;91.14
47753;BME280;2038;51.728;6.674;2024-02-28T10:01:28;77867.03;;;-141.64;90.63
47753;BME280;2038;51.728;6.674;2024-02-28T10:03:55;77867.03;;;-141.64;91.02
47753;BME280;2038;51.728;6.674;2024-02-28T10:06:23;77853.38;;;-141.64;91.11
47753;BME280;2038;51.728;6.674;2024-02-28T10:08:49;77855.31;;;-141.64;90.27
47753;BME280;2038;51.728;6.674;2024-02-28T10:11:23;77851.41;;;-141.64;90.08
47753;BME280;2038;51.728;6.674;2024-02-28T10:13:52;77835.78;;;-141.64;90.26
47753;BME280;2038;51.728;6.674;2024-02-28T10:16:18;77822.13;;;-141.64;89.97
47753;BME280;2038;51.728;6.674;2024-02-28T10:18:45;77822.13;;;-141.64;89.94
47753;BME280;2038;51.728;6.674;2024-02-28T10:21:14;77808.44;;;-141.64;90.06
47753;BME280;2038;51.728;6.674;2024-02-28T10:23:42;77808.44;;;-141.64;90.34
47753;BME280;2038;51.728;6.674;2024-02-28T10:26:12;77794.78;;;-141.64;90.31
47753;BME280;2038;51.728;6.674;2024-02-28T10:28:39;77788.91;;;-141.64;90.12
47753;BME280;2038;51.728;6.674;2024-02-28T10:31:06;77806.50;;;-141.64;88.96
47753;BME280;2038;51.728;6.674;2024-02-28T10:33:41;77798.66;;;-141.64;88.80
47753;BME280;2038;51.728;6.674;2024-02-28T10:36:07;77800.63;;;-141.64;89.02
47753;BME280;2038;51.728;6.674;2024-02-28T10:38:35;77804.53;;;-141.64;88.22
47753;BME280;2038;51.728;6.674;2024-02-28T10:41:05;77800.63;;;-141.64;88.02
47753;BME280;2038;51.728;6.674;2024-02-28T10:43:32;77794.78;;;-141.64;87.58
47753;BME280;2038;51.728;6.674;2024-02-28T10:46:01;77788.91;;;-141.64;87.76
47753;BME280;2038;51.728;6.674;2024-02-28T10:48:27;77773.28;;;-141.64;88.77
47753;BME280;2038;51.728;6.674;2024-02-28T10:50:54;77759.63;;;-141.64;88.56
47753;BME280;2038;51.728;6.674;2024-02-28T10:53:39;77763.50;;;-141.64;88.68
47753;BME280;2038;51.728;6.674;2024-02-28T10:56:11;77738.13;;;-141.64;88.48
47753;BME280;2038;51.728;6.674;2024-02-28T10:58:44;77736.16;;;-141.64;87.81
47753;BME280;2038;51.728;6.674;2024-02-28T11:01:21;77724.47;;;-141.64;88.34
47753;BME280;2038;51.728;6.674;2024-02-28T11:03:50;77718.59;;;-141.64;87.85
47753;BME280;2038;51.728;6.674;2024-02-28T11:06:21;77710.78;;;-141.64;86.98
47753;BME280;2038;51.728;6.674;2024-02-28T11:08:49;77712.72;;;-141.64;86.60
47753;BME280;2038;51.728;6.674;2024-02-28T11:11:20;77712.72;;;-141.64;86.53
47753;BME280;2038;51.728;6.674;2024-02-28T11:13:54;77716.63;;;-141.64;86.63
47753;BME280;2038;51.728;6.674;2024-02-28T11:16:32;77708.84;;;-141.64;86.36
47753;BME280;2038;51.728;6.674;2024-02-28T11:19:00;77687.34;;;-141.64;86.90
47753;BME280;2038;51.728;6.674;2024-02-28T11:21:29;77681.47;;;-141.64;86.68
47753;BME280;2038;51.728;6.674;2024-02-28T11:24:02;77665.88;;;-141.64;86.81
47753;BME280;2038;51.728;6.674;2024-02-28T11:26:29;77654.13;;;-141.64;86.26
47753;BME280;2038;51.728;6.674;2024-02-28T11:28:56;77646.31;;;-141.64;86.28
47753;BME280;2038;51.728;6.674;2024-02-28T11:31:22;77642.41;;;-141.64;85.82
47753;BME280;2038;51.728;6.674;2024-02-28T11:33:49;77632.66;;;-141.64;85.81
47753;BME280;2038;51.728;6.674;2024-02-28T11:36:15;77630.69;;;-141.64;85.67
47753;BME280;2038;51.728;6.674;2024-02-28T11:38:41;77638.50;;;-141.64;85.34
47753;BME280;2038;51.728;6.674;2024-02-28T11:41:08;77652.19;;;-141.64;84.92
47753;BME280;2038;51.728;6.674;2024-02-28T11:43:35;77660.00;;;-141.64;84.99
47753;BME280;2038;51.728;6.674;2024-02-28T11:46:02;77663.91;;;-141.64;84.43
47753;BME280;2038;51.728;6.674;2024-02-28T11:48:34;77656.09;;;-141.64;84.48
47753;BME280;2038;51.728;6.674;2024-02-28T11:51:00;77650.25;;;-141.64;84.63
47753;BME280;2038;51.728;6.674;2024-02-28T11:53:26;77658.03;;;-141.64;84.97
47753;BME280;2038;51.728;6.674;2024-02-28T11:55:53;77654.13;;;-141.64;84.96
47753;BME280;2038;51.728;6.674;2024-02-28T11:58:22;77650.25;;;-141.64;84.91
47753;BME280;2038;51.728;6.674;2024-02-28T12:00:49;77642.41;;;-141.64;84.90
47753;BME280;2038;51.728;6.674;2024-02-28T12:03:26;77644.38;;;-141.64;85.33
47753;BME280;2038;51.728;6.674;2024-02-28T12:05:54;77642.41;;;-141.64;84.91
47753;BME280;2038;51.728;6.674;2024-02-28T12:08:21;77644.38;;;-141.64;84.84
47753;BME280;2038;51.728;6.674;2024-02-28T12:10:48;77638.50;;;-141.64;85.03
47753;BME280;2038;51.728;6.674;2024-02-28T12:13:18;77630.69;;;-141.64;84.54
47753;BME280;2038;51.728;6.674;2024-02-28T12:15:45;77630.69;;;-141.64;84.83
47753;BME280;2038;51.728;6.674;2024-02-28T12:18:12;77636.56;;;-141.64;84.46
47753;BME280;2038;51.728;6.674;2024-02-28T12:20:40;77640.47;;;-141.64;84.57
47753;BME280;2038;51.728;6.674;2024-02-28T12:23:07;77654.13;;;-141.64;84.17
47753;BME280;2038;51.728;6.674;2024-02-28T12:25:34;77660.00;;;-141.64;84.24
47753;BME280;2038;51.728;6.674;2024-02-28T12:28:01;77667.81;;;-141.64;84.08
47753;BME280;2038;51.728;6.674;2024-02-28T12:30:27;77667.81;;;-141.64;85.29
47753;BME280;2038;51.728;6.674;2024-02-28T12:32:54;77673.66;;;-141.64;85.20
47753;BME280;2038;51.728;6.674;2024-02-28T12:35:20;77667.81;;;-141.64;85.89
47753;BME280;2038;51.728;6.674;2024-02-28T12:37:46;77646.31;;;-141.64;85.59
47753;BME280;2038;51.728;6.674;2024-02-28T12:40:16;77652.19;;;-141.64;85.82
47753;BME280;2038;51.728;6.674;2024-02-28T12:42:43;77654.13;;;-141.64;85.17
47753;BME280;2038;51.728;6.674;2024-02-28T12:45:09;77642.41;;;-141.64;85.97
47753;BME280;2038;51.728;6.674;2024-02-28T12:47:36;77634.63;;;-141.64;85.54
47753;BME280;2038;51.728;6.674;2024-02-28T12:50:03;77626.78;;;-141.64;85.48
47753;BME280;2038;51.728;6.674;2024-02-28T12:52:30;77622.91;;;-141.64;84.91
47753;BME280;2038;51.728;6.674;2024-02-28T12:54:56;77607.28;;;-141.64;85.66
47753;BME280;2038;51.728;6.674;2024-02-28T12:57:22;77603.38;;;-141.64;85.20
47753;BME280;2038;51.728;6.674;2024-02-28T12:59:49;77589.69;;;-141.64;84.98
47753;BME280;2038;51.728;6.674;2024-02-28T13:02:15;77579.94;;;-141.64;84.42
47753;BME280;2038;51.728;6.674;2024-02-28T13:04:43;77572.09;;;-141.64;84.08
47753;BME280;2038;51.728;6.674;2024-02-28T13:07:09;77556.50;;;-141.64;83.72
47753;BME280;2038;51.728;6.674;2024-02-28T13:09:36;77568.22;;;-141.64;83.79
47753;BME280;2038;51.728;6.674;2024-02-28T13:12:04;77558.44;;;-141.64;83.17
47753;BME280;2038;51.728;6.674;2024-02-28T13:14:31;77566.25;;;-141.64;82.58
47753;BME280;2038;51.728;6.674;2024-02-28T13:16:58;77556.50;;;-141.64;81.94
47753;BME280;2038;51.728;6.674;2024-02-28T13:19:25;77546.72;;;-141.64;82.42
47753;BME280;2038;51.728;6.674;2024-02-28T13:21:51;77536.97;;;-141.64;81.64
47753;BME280;2038;51.728;6.674;2024-02-28T13:24:17;77531.09;;;-141.64;81.35
47753;BME280;2038;51.728;6.674;2024-02-28T13:26:43;77523.28;;;-141.64;81.14
47753;BME280;2038;51.728;6.674;2024-02-28T13:29:10;77525.25;;;-141.64;81.21
47753;BME280;2038;51.728;6.674;2024-02-28T13:31:36;77513.53;;;-141.64;81.30
47753;BME280;2038;51.728;6.674;2024-02-28T13:34:02;77497.91;;;-141.64;81.23
47753;BME280;2038;51.728;6.674;2024-02-28T13:36:29;77495.94;;;-141.64;81.04
47753;BME280;2038;51.728;6.674;2024-02-28T13:38:58;77480.31;;;-141.64;80.37
47753;BME280;2038;51.728;6.674;2024-02-28T13:41:24;77468.59;;;-141.64;80.62
47753;BME280;2038;51.728;6.674;2024-02-28T13:43:50;77462.75;;;-141.64;80.20
47753;BME280;2038;51.728;6.674;2024-02-28T13:46:17;77456.88;;;-141.64;80.40
47753;BME280;2038;51.728;6.674;2024-02-28T13:48:45;77454.94;;;-141.64;79.71
47753;BME280;2038;51.728;6.674;2024-02-28T13:51:12;77441.25;;;-141.64;79.93
47753;BME280;2038;51.728;6.674;2024-02-28T13:53:38;77439.31;;;-141.64;79.29
47753;BME280;2038;51.728;6.674;2024-02-28T13:56:05;77447.13;;;-141.64;78.82
47753;BME280;2038;51.728;6.674;2024-02-28T13:58:31;77443.22;;;-141.64;79.89
47753;BME280;2038;51.728;6.674;2024-02-28T14:00:58;77445.16;;;-141.64;78.93
47753;BME280;2038;51.728;6.674;2024-02-28T14:03:24;77460.78;;;-141.64;78.60
47753;BME280;2038;51.728;6.674;2024-02-28T14:05:51;77454.94;;;-141.64;78.59
47753;BME280;2038;51.728;6.674;2024-02-28T14:08:18;77447.13;;;-141.64;78.46
47753;BME280;2038;51.728;6.674;2024-02-28T14:10:44;77445.16;;;-141.64;78.79
47753;BME280;2038;51.728;6.674;2024-02-28T14:13:11;77445.16;;;-141.64;78.69
47753;BME280;2038;51.728;6.674;2024-02-28T14:15:38;77435.41;;;-141.64;79.23
47753;BME280;2038;51.728;6.674;2024-02-28T14:18:04;77441.25;;;-141.64;78.59
47753;BME280;2038;51.728;6.674;2024-02-28T14:20:31;77437.34;;;-141.64;79.23
47753;BME280;2038;51.728;6.674;2024-02-28T14:22:57;77431.50;;;-141.64;79.24
47753;BME280;2038;51.728;6.674;2024-02-28T14:25:24;77431.50;;;-141.64;79.10
47753;BME280;2038;51.728;6.674;2024-02-28T14:27:51;77431.50;;;-141.64;79.50
47753;BME280;2038;51.728;6.674;2024-02-28T14:30:17;77435.41;;;-141.64;78.96
47753;BME280;2038;51.728;6.674;2024-02-28T14:32:44;77423.69;;;-141.64;78.84
47753;BME280;2038;51.728;6.674;2024-02-28T14:35:10;77423.69;;;-141.64;79.32
47753;BME280;2038;51.728;6.674;2024-02-28T14:37:38;77419.78;;;-141.64;78.88
47753;BME280;2038;51.728;6.674;2024-02-28T14:40:09;77421.72;;;-141.64;78.99
47753;BME280;2038;51.728;6.674;2024-02-28T14:42:39;77415.88;;;-141.64;79.80
47753;BME280;2038;51.728;6.674;2024-02-28T14:45:07;77417.81;;;-141.64;79.29
47753;BME280;2038;51.728;6.674;2024-02-28T14:47:36;77417.81;;;-141.64;79.33
47753;BME280;2038;51.728;6.674;2024-02-28T14:50:04;77411.97;;;-141.64;79.15
47753;BME280;2038;51.728;6.674;2024-02-28T14:52:31;77415.88;;;-141.64;78.60
47753;BME280;2038;51.728;6.674;2024-02-28T14:54:58;77400.25;;;-141.64;78.94